Portada
METAR-TAF:

METAR-TAF

Aeroports :

Aeroport Internacional de Ginebra

Ginebra, Suïssa

latitud: 46-15N, longitud: 006-08E, altitud: 420 m

Observació

L'informe es va fer fa 38 minuts, a les 06:20 UTC
Vent 1 kt del Oest/Nord-Oest
Temperatura -1°C
Humitat 93%
Pressió 1012 hPa
Visibilitat: 8000 m
Escasses núvols a una alçada de 5000 ft
Cel ennuvolat a una alçada de 9000 ft

METAR: LSGG 200620Z 29001KT 8000 FEW050 BKN090 M01/M02 Q1012 NOSIG

Hora: 07:58 (06:58 UTC)

Pronòstic

L'informe es va fer fa 1 hora i 33 minuts, a les 05:25 UTC
Pronòstic vàlid del 20 a les 06 UTC al 21 a les 12 UTC
Vent 3 kt amb direcció variable
Visibilitat: 8000 m
Cel ennuvolat a una alçada de 9000 ft

TAF: LSGG 200525Z 2006/2112 VRB03KT 8000 BKN090 TX03/2014Z TNM03/2006Z TNM01/2106Z

Observacions i pronòstics meteorològics de més de 4000 aeroports (METAR i TAF).

Les estacions disponibles són els punts grocs i vermells al mapa.

Posi el ratolí al punt desitjat per veure el nom de l'estació.

Feu clic per veure les observacions i els pronòstics meteorològics.

Per canviar el mapa: feu clic els botons verds amb una creu de color negre per apropar; al botó verd amb un guió per allunyar la imatge; o en les fletxes verdes per a mapes adjacents.


METAR-TAF: